createdAt,value
2019-02-28T00:01:46.499Z,9.17
2019-02-28T00:04:13.763Z,9.09
2019-02-28T00:06:44.049Z,8.92
2019-02-28T00:09:09.843Z,8.88
2019-02-28T00:11:39.527Z,8.86
2019-02-28T00:14:06.090Z,8.89
2019-02-28T00:16:35.635Z,8.91
2019-02-28T00:19:02.549Z,9.01
2019-02-28T00:21:29.894Z,9.14
2019-02-28T00:23:57.592Z,9.09
2019-02-28T00:26:24.910Z,8.87
2019-02-28T00:28:52.200Z,8.87
2019-02-28T00:31:19.246Z,8.65
2019-02-28T00:33:46.389Z,8.54
2019-02-28T00:36:16.327Z,8.46
2019-02-28T00:38:42.504Z,8.29
2019-02-28T00:41:10.261Z,8.29
2019-02-28T00:43:37.273Z,8.33
2019-02-28T00:46:09.672Z,8.27
2019-02-28T00:48:33.678Z,8.38
2019-02-28T00:51:01.004Z,8.30
2019-02-28T00:53:28.046Z,8.17
2019-02-28T00:55:55.098Z,8.22
2019-02-28T00:58:22.475Z,8.20
2019-02-28T01:00:49.831Z,8.18
2019-02-28T01:03:17.118Z,8.40
2019-02-28T01:05:44.155Z,8.49
2019-02-28T01:08:11.526Z,8.49
2019-02-28T01:10:39.263Z,8.47
2019-02-28T01:13:06.998Z,8.44
2019-02-28T01:15:34.370Z,8.31
2019-02-28T01:18:01.619Z,8.30
2019-02-28T01:20:28.874Z,8.34
2019-02-28T01:22:58.571Z,8.25
2019-02-28T01:25:24.938Z,8.48
2019-02-28T01:27:53.019Z,8.53
2019-02-28T01:30:20.449Z,8.44
2019-02-28T01:32:50.916Z,8.34
2019-02-28T01:35:16.903Z,8.17
2019-02-28T01:37:44.191Z,8.27
2019-02-28T01:40:11.526Z,8.30
2019-02-28T01:42:40.006Z,8.12
2019-02-28T01:45:09.975Z,7.98
2019-02-28T01:47:36.151Z,7.89
2019-02-28T01:50:03.193Z,7.83
2019-02-28T01:52:30.252Z,7.73
2019-02-28T01:54:58.574Z,7.64
2019-02-28T01:57:26.449Z,7.66
2019-02-28T01:59:53.849Z,7.72
2019-02-28T02:02:21.182Z,7.77
2019-02-28T02:04:48.229Z,7.69
2019-02-28T02:07:15.283Z,7.62
2019-02-28T02:09:45.892Z,7.52
2019-02-28T02:12:11.348Z,7.35
2019-02-28T02:14:38.390Z,7.25
2019-02-28T02:17:05.722Z,7.19
2019-02-28T02:19:33.078Z,7.15
2019-02-28T02:22:00.122Z,7.17
2019-02-28T02:24:27.962Z,7.24
2019-02-28T02:26:56.293Z,7.21
2019-02-28T02:29:23.351Z,7.19
2019-02-28T02:31:50.410Z,7.17
2019-02-28T02:34:17.697Z,7.10
2019-02-28T02:36:45.075Z,7.05
2019-02-28T02:39:16.438Z,6.99
2019-02-28T02:41:41.443Z,6.90
2019-02-28T02:44:08.499Z,6.72
2019-02-28T02:46:43.027Z,6.69
2019-02-28T02:49:10.163Z,6.69
2019-02-28T02:51:37.205Z,6.55
2019-02-28T02:54:04.224Z,6.48
2019-02-28T02:56:40.465Z,6.41
2019-02-28T02:59:02.370Z,6.36
2019-02-28T03:01:29.441Z,6.36
2019-02-28T03:03:56.741Z,6.38
2019-02-28T03:06:23.898Z,6.47
2019-02-28T03:08:50.949Z,6.45
2019-02-28T03:11:19.061Z,6.49
2019-02-28T03:13:46.358Z,6.59
2019-02-28T03:16:13.718Z,6.62
2019-02-28T03:18:40.768Z,6.71
2019-02-28T03:21:07.799Z,6.76
2019-02-28T03:23:39.836Z,6.69
2019-02-28T03:26:06.880Z,6.65
2019-02-28T03:28:33.335Z,6.74
2019-02-28T03:31:11.657Z,6.79
2019-02-28T03:33:29.805Z,6.92
2019-02-28T03:35:56.848Z,6.94
2019-02-28T03:38:24.210Z,7.01
2019-02-28T03:40:51.239Z,7.15
2019-02-28T03:43:18.294Z,7.18
2019-02-28T03:45:45.588Z,7.11
2019-02-28T03:48:12.715Z,7.17
2019-02-28T03:50:39.755Z,7.47
2019-02-28T03:53:07.110Z,7.63
2019-02-28T03:55:40.035Z,7.48
2019-02-28T03:58:05.423Z,7.43
2019-02-28T04:00:33.926Z,7.43
2019-02-28T04:03:01.444Z,7.40
2019-02-28T04:05:28.667Z,7.25
2019-02-28T04:07:55.699Z,7.19
2019-02-28T04:10:23.125Z,7.46
2019-02-28T04:12:50.184Z,7.43
2019-02-28T04:15:17.506Z,7.33
2019-02-28T04:17:44.814Z,7.47
2019-02-28T04:20:13.221Z,7.45
2019-02-28T04:22:40.594Z,7.42
2019-02-28T04:25:07.647Z,7.46
2019-02-28T04:27:34.997Z,7.55
2019-02-28T04:30:06.200Z,7.34
2019-02-28T04:32:31.031Z,7.15
2019-02-28T04:34:58.081Z,7.23
2019-02-28T04:37:25.120Z,7.42
2019-02-28T04:39:53.316Z,7.36
2019-02-28T04:42:21.380Z,7.26
2019-02-28T04:44:49.250Z,7.23
2019-02-28T04:47:17.422Z,7.22
2019-02-28T04:49:44.778Z,7.20
2019-02-28T04:52:12.786Z,7.17
2019-02-28T04:54:40.327Z,7.18
2019-02-28T04:57:07.367Z,7.21
2019-02-28T04:59:34.941Z,7.34
2019-02-28T05:02:02.269Z,7.49
2019-02-28T05:04:29.320Z,7.37
2019-02-28T05:06:56.364Z,7.90
2019-02-28T05:09:23.397Z,8.12
2019-02-28T05:11:50.767Z,7.88
2019-02-28T05:14:23.387Z,7.55
2019-02-28T05:16:47.514Z,7.69
2019-02-28T05:19:15.444Z,8.08
2019-02-28T05:21:42.540Z,7.77
2019-02-28T05:24:09.526Z,7.49
2019-02-28T05:26:36.867Z,7.82
2019-02-28T05:29:04.028Z,8.00
2019-02-28T05:31:31.078Z,7.96
2019-02-28T05:33:59.240Z,7.82
2019-02-28T05:36:26.290Z,7.78
2019-02-28T05:38:56.691Z,7.94
2019-02-28T05:41:22.718Z,7.98
2019-02-28T05:43:50.505Z,7.98
2019-02-28T05:46:20.293Z,8.02
2019-02-28T05:48:46.932Z,8.20
2019-02-28T05:51:14.239Z,8.34
2019-02-28T05:53:42.635Z,8.40
2019-02-28T05:56:09.803Z,8.34
2019-02-28T05:58:37.174Z,8.27
2019-02-28T06:01:05.585Z,8.42
2019-02-28T06:03:32.642Z,8.46
2019-02-28T06:05:59.954Z,8.60
2019-02-28T06:08:27.309Z,8.71
2019-02-28T06:10:56.107Z,8.79
2019-02-28T06:13:23.089Z,8.71
2019-02-28T06:15:50.500Z,8.78
2019-02-28T06:18:17.855Z,8.76
2019-02-28T06:20:44.902Z,8.79
2019-02-28T06:23:12.191Z,8.75
2019-02-28T06:25:39.240Z,8.90
2019-02-28T06:28:06.581Z,8.90
2019-02-28T06:30:33.918Z,8.99
2019-02-28T06:33:00.964Z,8.96
2019-02-28T06:35:28.325Z,9.04
2019-02-28T06:37:55.445Z,9.34
2019-02-28T06:40:22.825Z,10.17
2019-02-28T06:42:50.182Z,10.82
2019-02-28T06:45:17.230Z,11.40
2019-02-28T06:47:47.972Z,11.43
2019-02-28T06:50:13.798Z,11.45
2019-02-28T06:52:40.947Z,11.73
2019-02-28T06:55:08.290Z,11.73
2019-02-28T06:57:35.604Z,11.84
2019-02-28T07:00:02.643Z,11.96
2019-02-28T07:02:31.438Z,12.40
2019-02-28T07:04:58.425Z,12.46
2019-02-28T07:07:25.479Z,12.62
2019-02-28T07:09:52.826Z,12.95
2019-02-28T07:12:20.181Z,13.16
2019-02-28T07:14:49.331Z,13.64
2019-02-28T07:17:16.293Z,14.18
2019-02-28T07:19:43.323Z,14.38
2019-02-28T07:22:10.738Z,14.90
2019-02-28T07:24:38.233Z,14.72
2019-02-28T07:27:05.321Z,14.24
2019-02-28T07:29:32.356Z,14.32
2019-02-28T07:32:01.222Z,14.93
2019-02-28T07:34:28.562Z,15.66
2019-02-28T07:36:55.618Z,16.11
2019-02-28T07:39:22.931Z,16.48
2019-02-28T07:41:49.987Z,16.70
2019-02-28T07:44:21.262Z,17.07
2019-02-28T07:46:46.095Z,17.54
2019-02-28T07:49:13.149Z,18.07
2019-02-28T07:51:40.439Z,18.16
2019-02-28T07:54:07.777Z,19.47
2019-02-28T07:56:35.137Z,18.60
2019-02-28T07:59:05.335Z,18.98
2019-02-28T08:01:30.929Z,19.27
2019-02-28T08:03:58.324Z,20.05
2019-02-28T08:06:25.372Z,19.84
2019-02-28T08:08:52.730Z,20.15
2019-02-28T08:11:20.838Z,20.56
2019-02-28T08:13:48.361Z,20.83
2019-02-28T08:16:15.653Z,21.39
2019-02-28T08:18:42.969Z,19.88
2019-02-28T08:21:10.041Z,19.79
2019-02-28T08:23:37.674Z,20.29
2019-02-28T08:26:05.105Z,21.33
2019-02-28T08:28:35.834Z,19.87
2019-02-28T08:31:00.895Z,19.81
2019-02-28T08:33:27.947Z,19.72
2019-02-28T08:35:55.280Z,20.01
2019-02-28T08:38:23.565Z,19.85
2019-02-28T08:40:51.665Z,18.96
2019-02-28T08:43:26.850Z,19.02
2019-02-28T08:45:47.543Z,19.85
2019-02-28T08:48:14.593Z,19.27
2019-02-28T08:50:41.640Z,19.22
2019-02-28T08:53:08.680Z,19.40
2019-02-28T08:55:38.437Z,19.00
2019-02-28T08:58:06.463Z,19.20
2019-02-28T09:00:33.501Z,20.27
2019-02-28T09:03:01.059Z,20.06
2019-02-28T09:05:30.078Z,21.00
2019-02-28T09:07:58.280Z,20.83
2019-02-28T09:10:26.747Z,21.10
2019-02-28T09:12:54.021Z,21.87
2019-02-28T09:15:21.081Z,22.62
2019-02-28T09:17:48.122Z,21.87
2019-02-28T09:20:15.178Z,21.24
2019-02-28T09:22:42.511Z,20.54
2019-02-28T09:25:10.635Z,19.79
2019-02-28T09:27:38.849Z,20.62
2019-02-28T09:30:06.679Z,20.97
2019-02-28T09:32:33.798Z,20.23
2019-02-28T09:35:02.572Z,20.14
2019-02-28T09:37:30.499Z,20.87
2019-02-28T09:39:57.872Z,20.68
2019-02-28T09:42:24.919Z,21.47
2019-02-28T09:44:51.977Z,20.85
2019-02-28T09:47:19.023Z,21.87
2019-02-28T09:49:47.155Z,21.59
2019-02-28T09:52:15.382Z,22.76
2019-02-28T09:54:42.435Z,21.74
2019-02-28T09:57:09.771Z,20.64
2019-02-28T09:59:37.831Z,21.00
2019-02-28T10:02:08.417Z,20.53
2019-02-28T10:04:36.136Z,21.24
2019-02-28T10:07:03.513Z,21.58
2019-02-28T10:09:30.569Z,20.81
2019-02-28T10:11:57.891Z,22.79
2019-02-28T10:14:25.739Z,22.97
2019-02-28T10:16:53.983Z,21.34
2019-02-28T10:19:21.126Z,21.42
2019-02-28T10:21:51.847Z,22.16
2019-02-28T10:24:17.046Z,22.78
2019-02-28T10:26:44.097Z,22.06
2019-02-28T10:29:11.450Z,23.20
2019-02-28T10:31:38.673Z,23.74
2019-02-28T10:34:05.726Z,22.40
2019-02-28T10:36:32.772Z,22.44
2019-02-28T10:39:02.746Z,23.07
2019-02-28T10:41:31.766Z,22.72
2019-02-28T10:43:58.810Z,22.06
2019-02-28T10:46:25.865Z,22.56
2019-02-28T10:48:53.234Z,22.52
2019-02-28T10:51:20.286Z,21.95
2019-02-28T10:53:47.330Z,22.87
2019-02-28T10:56:14.382Z,23.09
2019-02-28T10:58:41.733Z,24.29
2019-02-28T11:01:09.024Z,22.65
2019-02-28T11:03:36.107Z,23.63
2019-02-28T11:06:03.491Z,24.04
2019-02-28T11:08:30.540Z,23.62
2019-02-28T11:10:57.894Z,23.54
2019-02-28T11:13:25.353Z,23.90
2019-02-28T11:15:52.415Z,23.87
2019-02-28T11:18:19.454Z,23.77
2019-02-28T11:20:46.826Z,23.31
2019-02-28T11:23:17.963Z,22.80
2019-02-28T11:25:45.046Z,23.70
2019-02-28T11:28:12.349Z,22.11
2019-02-28T11:30:44.375Z,21.76
2019-02-28T11:33:08.450Z,21.69
2019-02-28T11:35:35.503Z,22.94
2019-02-28T11:38:04.840Z,24.35
2019-02-28T11:40:31.631Z,24.30
2019-02-28T11:42:59.362Z,24.77
2019-02-28T11:45:27.674Z,25.06
2019-02-28T11:47:54.730Z,24.59
2019-02-28T11:50:21.782Z,22.79
2019-02-28T11:52:49.194Z,21.50
2019-02-28T11:55:16.878Z,20.62
2019-02-28T11:57:45.286Z,20.83
2019-02-28T12:00:13.463Z,21.13
2019-02-28T12:02:40.821Z,21.07
2019-02-28T12:05:07.857Z,20.66
2019-02-28T12:07:35.708Z,19.60
2019-02-28T12:10:03.916Z,20.27
2019-02-28T12:12:31.295Z,22.07
2019-02-28T12:15:02.441Z,22.89
2019-02-28T12:17:28.559Z,23.74
2019-02-28T12:19:56.127Z,24.00
2019-02-28T12:22:23.183Z,23.15
2019-02-28T12:24:50.528Z,22.39
2019-02-28T12:27:17.830Z,22.18
2019-02-28T12:29:45.584Z,23.12
2019-02-28T12:32:13.629Z,22.73
2019-02-28T12:34:40.976Z,23.66
2019-02-28T12:37:09.007Z,23.11
2019-02-28T12:39:36.504Z,24.63
2019-02-28T12:42:04.369Z,25.14
2019-02-28T12:44:31.418Z,23.90
2019-02-28T12:46:58.470Z,21.13
2019-02-28T12:49:27.572Z,19.48
2019-02-28T12:51:54.259Z,19.24
2019-02-28T12:54:21.557Z,21.00
2019-02-28T12:56:48.928Z,22.97
2019-02-28T12:59:15.949Z,24.10
2019-02-28T13:01:43.312Z,21.56
2019-02-28T13:04:10.352Z,21.21
2019-02-28T13:06:37.735Z,20.22
2019-02-28T13:09:04.777Z,20.54
2019-02-28T13:11:35.834Z,21.65
2019-02-28T13:14:02.942Z,21.74
2019-02-28T13:16:30.536Z,22.18
2019-02-28T13:18:57.591Z,22.49
2019-02-28T13:21:24.929Z,22.85
2019-02-28T13:23:51.970Z,22.91
2019-02-28T13:26:19.323Z,23.37
2019-02-28T13:28:46.697Z,23.46
2019-02-28T13:31:14.040Z,22.21
2019-02-28T13:33:41.096Z,21.42
2019-02-28T13:36:08.172Z,21.09
2019-02-28T13:38:35.485Z,20.27
2019-02-28T13:41:02.524Z,19.13
2019-02-28T13:43:31.966Z,18.27
2019-02-28T13:45:58.674Z,17.88
2019-02-28T13:48:30.004Z,17.46
2019-02-28T13:50:55.508Z,17.31
2019-02-28T13:53:23.502Z,17.12
2019-02-28T13:55:52.680Z,16.92
2019-02-28T13:58:21.577Z,16.93
2019-02-28T14:00:49.714Z,16.79
2019-02-28T14:03:17.188Z,16.57
2019-02-28T14:05:44.676Z,16.46
2019-02-28T14:08:12.359Z,16.61
2019-02-28T14:10:39.803Z,16.62
2019-02-28T14:13:06.859Z,16.68
2019-02-28T14:15:33.901Z,16.48
2019-02-28T14:18:01.213Z,16.38
2019-02-28T14:20:28.473Z,16.42
2019-02-28T14:22:55.881Z,16.34
2019-02-28T14:25:23.216Z,16.27
2019-02-28T14:27:50.518Z,16.21
2019-02-28T14:30:19.642Z,16.24
2019-02-28T14:32:46.864Z,16.30
2019-02-28T14:35:14.189Z,16.28
2019-02-28T14:37:41.322Z,16.23
2019-02-28T14:40:08.678Z,16.20
2019-02-28T14:42:35.735Z,16.17
2019-02-28T14:45:03.975Z,16.26
2019-02-28T14:47:31.583Z,16.25
2019-02-28T14:49:58.934Z,16.17
2019-02-28T14:52:25.976Z,16.08
2019-02-28T14:54:57.081Z,16.07
2019-02-28T14:57:23.157Z,16.10
2019-02-28T14:59:50.262Z,15.98
2019-02-28T15:02:17.554Z,15.88
2019-02-28T15:04:45.790Z,15.94
2019-02-28T15:07:13.297Z,15.94
2019-02-28T15:09:40.351Z,15.76
2019-02-28T15:12:07.675Z,15.79
2019-02-28T15:14:35.032Z,15.78
2019-02-28T15:17:06.735Z,15.75
2019-02-28T15:19:31.484Z,15.70
2019-02-28T15:21:58.834Z,15.67
2019-02-28T15:24:26.955Z,15.64
2019-02-28T15:26:53.995Z,15.63
2019-02-28T15:29:23.471Z,15.61
2019-02-28T15:31:50.118Z,15.53
2019-02-28T15:34:17.456Z,15.53
2019-02-28T15:36:44.563Z,15.48
2019-02-28T15:39:12.599Z,15.40
2019-02-28T15:41:39.939Z,15.40
2019-02-28T15:44:07.284Z,15.35
2019-02-28T15:46:36.005Z,15.24
2019-02-28T15:49:03.175Z,15.17
2019-02-28T15:51:30.356Z,15.10
2019-02-28T15:53:57.446Z,15.06
2019-02-28T15:56:24.626Z,15.06
2019-02-28T15:58:51.679Z,14.97
2019-02-28T16:01:18.718Z,14.97
2019-02-28T16:03:48.351Z,14.80
2019-02-28T16:06:16.313Z,14.78
2019-02-28T16:08:46.789Z,14.73
2019-02-28T16:11:12.595Z,14.70
2019-02-28T16:13:39.948Z,14.67
2019-02-28T16:16:06.995Z,14.61
2019-02-28T16:18:34.052Z,14.48
2019-02-28T16:21:03.677Z,14.44
2019-02-28T16:23:31.087Z,14.30
2019-02-28T16:25:58.466Z,14.28
2019-02-28T16:28:25.826Z,14.17
2019-02-28T16:30:52.881Z,14.03
2019-02-28T16:33:20.820Z,13.93
2019-02-28T16:35:50.463Z,13.79
2019-02-28T16:38:18.315Z,13.69
2019-02-28T16:40:45.448Z,13.54
2019-02-28T16:43:13.230Z,13.45
2019-02-28T16:45:41.065Z,13.41
2019-02-28T16:48:09.001Z,13.25
2019-02-28T16:50:36.055Z,13.17
2019-02-28T16:53:03.367Z,13.09
2019-02-28T16:55:31.040Z,13.00
2019-02-28T16:57:59.100Z,12.89
2019-02-28T17:00:26.154Z,12.77
2019-02-28T17:02:53.509Z,12.65
2019-02-28T17:05:26.600Z,12.62
2019-02-28T17:07:49.313Z,12.53
2019-02-28T17:10:16.435Z,12.45
2019-02-28T17:12:43.717Z,12.35
2019-02-28T17:15:10.774Z,12.29
2019-02-28T17:17:38.144Z,12.25
2019-02-28T17:20:07.162Z,12.15
2019-02-28T17:22:34.600Z,12.08
2019-02-28T17:25:01.972Z,11.99
2019-02-28T17:27:29.327Z,11.91
2019-02-28T17:29:57.653Z,11.87
2019-02-28T17:32:28.108Z,11.83
2019-02-28T17:34:55.988Z,11.73
2019-02-28T17:37:25.866Z,11.68
2019-02-28T17:39:52.541Z,11.66
2019-02-28T17:42:19.891Z,11.59
2019-02-28T17:44:47.195Z,11.57
2019-02-28T17:47:14.470Z,11.52
2019-02-28T17:49:41.735Z,11.49
2019-02-28T17:52:12.210Z,11.46
2019-02-28T17:55:01.222Z,11.42
2019-02-28T17:57:29.477Z,11.36
2019-02-28T17:59:56.708Z,11.23
2019-02-28T18:02:25.003Z,11.18
2019-02-28T18:05:03.866Z,11.15
2019-02-28T18:10:15.727Z,11.01
2019-02-28T18:12:44.319Z,10.92
2019-02-28T18:15:12.924Z,10.84
2019-02-28T18:17:40.147Z,10.85
2019-02-28T18:20:07.379Z,10.79
2019-02-28T18:22:35.163Z,10.75
2019-02-28T18:25:03.113Z,10.72
2019-02-28T18:27:32.028Z,10.71
2019-02-28T18:29:59.388Z,10.66
2019-02-28T18:32:29.735Z,10.64
2019-02-28T18:34:56.223Z,10.66
2019-02-28T18:37:24.525Z,10.66
2019-02-28T18:39:51.650Z,10.65
2019-02-28T18:42:20.003Z,10.65
2019-02-28T18:44:47.475Z,10.59
2019-02-28T18:47:14.529Z,10.44
2019-02-28T18:49:41.589Z,10.38
2019-02-28T18:52:08.699Z,10.28
2019-02-28T18:54:35.994Z,10.18
2019-02-28T18:57:03.180Z,10.14
2019-02-28T18:59:30.215Z,10.12
2019-02-28T19:01:58.740Z,10.20
2019-02-28T19:04:26.098Z,10.22
2019-02-28T19:06:53.182Z,10.24
2019-02-28T19:09:20.222Z,10.25
2019-02-28T19:11:47.347Z,10.23
2019-02-28T19:14:14.905Z,10.19
2019-02-28T19:16:41.950Z,10.13
2019-02-28T19:19:09.303Z,10.15
2019-02-28T19:21:37.681Z,10.09
2019-02-28T19:24:05.462Z,10.03
2019-02-28T19:26:32.516Z,10.05
2019-02-28T19:28:59.850Z,9.99
2019-02-28T19:31:26.907Z,9.96
2019-02-28T19:33:54.191Z,9.96
2019-02-28T19:36:21.563Z,9.99
2019-02-28T19:38:49.065Z,9.91
2019-02-28T19:41:17.069Z,9.92
2019-02-28T19:43:44.197Z,9.91
2019-02-28T19:46:11.554Z,9.80
2019-02-28T19:48:38.894Z,9.77
2019-02-28T19:51:06.172Z,9.74
2019-02-28T19:53:33.217Z,9.70
2019-02-28T19:56:00.498Z,9.66
2019-02-28T19:58:27.801Z,9.71
2019-02-28T20:00:54.837Z,9.64
2019-02-28T20:03:22.121Z,9.67
2019-02-28T20:05:49.173Z,9.70
2019-02-28T20:08:16.350Z,9.61
2019-02-28T20:10:43.860Z,9.63
2019-02-28T20:13:11.300Z,9.58
2019-02-28T20:15:38.678Z,9.60
2019-02-28T20:18:05.727Z,9.48
2019-02-28T20:20:32.764Z,9.54
2019-02-28T20:23:00.125Z,9.45
2019-02-28T20:25:27.408Z,9.48
2019-02-28T20:27:54.458Z,9.47
2019-02-28T20:30:21.762Z,9.49
2019-02-28T20:32:49.063Z,9.43
2019-02-28T20:35:25.907Z,9.27
2019-02-28T20:37:45.310Z,9.21
2019-02-28T20:40:14.054Z,8.94
2019-02-28T20:42:42.340Z,8.83
2019-02-28T20:45:10.845Z,8.80
2019-02-28T20:47:38.182Z,8.72
2019-02-28T20:50:05.462Z,8.59
2019-02-28T20:52:33.216Z,8.49
2019-02-28T20:55:00.364Z,8.48
2019-02-28T20:57:27.433Z,8.45
2019-02-28T20:59:54.752Z,8.51
2019-02-28T21:02:21.791Z,8.56
2019-02-28T21:04:49.153Z,8.63
2019-02-28T21:07:16.537Z,8.56
2019-02-28T21:09:45.181Z,8.65
2019-02-28T21:12:12.511Z,8.66
2019-02-28T21:14:39.557Z,8.70
2019-02-28T21:17:06.589Z,8.73
2019-02-28T21:19:33.641Z,8.78
2019-02-28T21:22:00.667Z,8.84
2019-02-28T21:24:27.728Z,8.79
2019-02-28T21:26:55.061Z,8.77
2019-02-28T21:29:22.119Z,8.72
2019-02-28T21:31:49.151Z,8.65
2019-02-28T21:34:18.438Z,8.66
2019-02-28T21:36:45.502Z,8.69
2019-02-28T21:39:12.554Z,8.67
2019-02-28T21:41:41.462Z,8.72
2019-02-28T21:44:10.011Z,8.74
2019-02-28T21:46:37.369Z,8.79
2019-02-28T21:49:04.826Z,8.88
2019-02-28T21:51:31.856Z,8.89
2019-02-28T21:53:59.325Z,8.87
2019-02-28T21:56:26.806Z,8.95
2019-02-28T21:58:53.856Z,8.94
2019-02-28T22:01:20.887Z,8.92
2019-02-28T22:03:48.355Z,8.88
2019-02-28T22:06:15.693Z,8.84
2019-02-28T22:08:43.064Z,8.89
2019-02-28T22:11:10.402Z,8.89
2019-02-28T22:13:37.452Z,8.82
2019-02-28T22:16:04.748Z,8.90
2019-02-28T22:18:31.791Z,8.88
2019-02-28T22:20:59.129Z,8.97
2019-02-28T22:23:26.180Z,8.94
2019-02-28T22:25:53.481Z,8.83
2019-02-28T22:28:20.513Z,8.93
2019-02-28T22:30:47.565Z,8.95
2019-02-28T22:33:14.601Z,8.91
2019-02-28T22:35:42.717Z,8.99
2019-02-28T22:38:09.994Z,8.93
2019-02-28T22:40:37.173Z,8.91
2019-02-28T22:43:04.809Z,9.00
2019-02-28T22:45:31.862Z,9.00
2019-02-28T22:47:59.214Z,9.08
2019-02-28T22:50:26.285Z,9.11
2019-02-28T22:52:53.316Z,9.08
2019-02-28T22:55:20.364Z,9.06
2019-02-28T22:57:47.692Z,8.95
2019-02-28T23:00:15.048Z,8.99
2019-02-28T23:02:42.151Z,9.07
2019-02-28T23:05:09.198Z,9.05
2019-02-28T23:07:36.477Z,9.09
2019-02-28T23:10:03.529Z,9.08
2019-02-28T23:12:30.633Z,9.12
2019-02-28T23:14:57.689Z,9.02
2019-02-28T23:17:24.725Z,9.01
2019-02-28T23:19:51.769Z,9.04
2019-02-28T23:22:19.112Z,9.03
2019-02-28T23:24:46.157Z,9.06
2019-02-28T23:27:13.192Z,9.07
2019-02-28T23:29:41.569Z,9.05
2019-02-28T23:32:08.604Z,9.08
2019-02-28T23:34:35.974Z,9.05
2019-02-28T23:37:03.004Z,8.93
2019-02-28T23:39:30.375Z,8.98
2019-02-28T23:41:57.642Z,9.03
2019-02-28T23:44:24.986Z,8.98
2019-02-28T23:46:52.038Z,8.94
2019-02-28T23:49:19.800Z,8.89
2019-02-28T23:51:46.843Z,8.83
2019-02-28T23:54:14.129Z,8.68
2019-02-28T23:56:41.164Z,8.49
2019-02-28T23:59:08.515Z,8.37
